Time;durP1;ratioP1;P1;durP2;ratioP2;P2;SDS_P1;SDS_P2;PMS_P1;PMS_P2;Temp;Humidity;BMP_temperature;BMP_pressure;BME280_temperature;BME280_humidity;BME280_pressure;Samples;Min_cycle;Max_cycle;Signal;HPM_P1;HPM_P2
2022/03/10 00:01:32;;;;;;;29.40;20.52;;;;;;;;;;143724;585;46023;-70
2022/03/10 00:03:59;;;;;;;29.12;19.05;;;;;;;;;;143730;591;45018;-70
2022/03/10 00:06:26;;;;;;;27.62;18.92;;;;;;;;;;143732;602;45022;-68
2022/03/10 00:08:53;;;;;;;30.00;20.62;;;;;;;;;;143727;588;46019;-69
2022/03/10 00:11:20;;;;;;;27.17;18.67;;;;;;;;;;143724;581;46022;-68
2022/03/10 00:13:47;;;;;;;23.40;16.87;;;;;;;;;;143727;681;46012;-69
2022/03/10 00:16:14;;;;;;;28.55;18.20;;;;;;;;;;143730;586;46013;-68
2022/03/10 00:18:41;;;;;;;24.67;17.73;;;;;;;;;;143727;607;46018;-69
2022/03/10 00:21:08;;;;;;;27.85;18.15;;;;;;;;;;143725;595;47012;-70
2022/03/10 00:23:35;;;;;;;25.98;17.77;;;;;;;;;;143730;574;45029;-68
2022/03/10 00:26:02;;;;;;;26.25;18.15;;;;;;;;;;143730;610;46012;-68
2022/03/10 00:28:29;;;;;;;21.00;15.07;;;;;;;;;;143727;673;46018;-70
2022/03/10 00:30:56;;;;;;;23.67;16.40;;;;;;;;;;143726;759;46023;-69
2022/03/10 00:33:23;;;;;;;21.98;16.40;;;;;;;;;;143730;591;45026;-68
2022/03/10 00:35:50;;;;;;;20.70;14.75;;;;;;;;;;143729;565;46012;-68
2022/03/10 00:38:17;;;;;;;21.20;14.02;;;;;;;;;;143726;566;46020;-68
2022/03/10 00:40:45;;;;;;;20.02;14.00;;;;;;;;;;143727;565;46012;-69
2022/03/10 00:43:12;;;;;;;24.65;16.45;;;;;;;;;;143726;580;46012;-68
2022/03/10 00:45:40;;;;;;;23.50;17.30;;;;;;;;;;143731;569;45025;-68
2022/03/10 00:48:07;;;;;;;23.00;17.35;;;;;;;;;;143727;575;46018;-70
2022/03/10 00:50:34;;;;;;;20.60;14.43;;;;;;;;;;143726;571;46022;-70
2022/03/10 00:53:01;;;;;;;18.65;14.23;;;;;;;;;;143726;608;46014;-68
2022/03/10 00:55:28;;;;;;;19.02;12.98;;;;;;;;;;143731;671;46023;-69
2022/03/10 00:57:56;;;;;;;18.60;12.30;;;;;;;;;;143726;591;47018;-68
2022/03/10 01:00:24;;;;;;;19.65;13.55;;;;;;;;;;143726;567;46023;-70
2022/03/10 01:02:51;;;;;;;20.95;12.98;;;;;;;;;;143730;603;45019;-68
2022/03/10 01:05:18;;;;;;;19.40;13.60;;;;;;;;;;143730;570;46022;-68
2022/03/10 01:07:46;;;;;;;19.67;12.85;;;;;;;;;;143727;622;46020;-68
2022/03/10 01:10:14;;;;;;;18.48;12.52;;;;;;;;;;143727;581;46023;-68
2022/03/10 01:12:42;;;;;;;17.15;12.65;;;;;;;;;;143729;624;46012;-68
2022/03/10 01:15:14;;;;;;;18.12;12.37;;;;;;;;;;143733;585;45023;-68
2022/03/10 01:17:41;;;;;;;18.95;13.07;;;;;;;;;;143729;579;46019;-69
2022/03/10 01:20:08;;;;;;;17.10;12.63;;;;;;;;;;143725;631;46022;-70
2022/03/10 01:22:36;;;;;;;16.52;11.75;;;;;;;;;;143727;585;46013;-70
2022/03/10 01:25:08;;;;;;;17.60;12.55;;;;;;;;;;143732;613;46023;-68
2022/03/10 01:27:35;;;;;;;18.80;13.00;;;;;;;;;;143728;572;46018;-68
2022/03/10 01:30:02;;;;;;;19.05;12.07;;;;;;;;;;143727;602;46023;-68
2022/03/10 01:32:29;;;;;;;18.48;13.57;;;;;;;;;;143726;564;46012;-68
2022/03/10 01:34:57;;;;;;;17.37;12.02;;;;;;;;;;143733;585;45025;-69
2022/03/10 01:37:24;;;;;;;16.52;11.75;;;;;;;;;;143728;584;46020;-68
2022/03/10 01:39:51;;;;;;;18.23;12.27;;;;;;;;;;143728;595;46022;-68
2022/03/10 01:42:18;;;;;;;18.35;12.48;;;;;;;;;;143729;604;45018;-68
2022/03/10 01:44:45;;;;;;;20.10;13.38;;;;;;;;;;143731;714;46012;-68
2022/03/10 01:47:12;;;;;;;17.30;11.85;;;;;;;;;;143727;566;46021;-68
2022/03/10 01:49:39;;;;;;;18.27;13.48;;;;;;;;;;143726;585;46022;-70
2022/03/10 01:52:07;;;;;;;16.05;11.85;;;;;;;;;;143729;597;46012;-69
2022/03/10 01:54:35;;;;;;;16.35;10.82;;;;;;;;;;143731;573;46013;-68
2022/03/10 01:57:03;;;;;;;19.42;12.07;;;;;;;;;;143726;615;47018;-68
2022/03/10 01:59:30;;;;;;;19.55;12.73;;;;;;;;;;143727;606;46023;-69
2022/03/10 02:01:57;;;;;;;18.00;12.35;;;;;;;;;;143729;706;46012;-67
2022/03/10 02:04:24;;;;;;;18.10;11.85;;;;;;;;;;143732;587;46012;-68
2022/03/10 02:06:51;;;;;;;18.05;12.27;;;;;;;;;;143728;572;46020;-68
2022/03/10 02:12:05;;;;;;;16.62;10.98;;;;;;;;;;143725;580;46018;-68
2022/03/10 02:17:22;;;;;;;19.83;12.93;;;;;;;;;;143730;579;46012;-68
2022/03/10 02:19:59;;;;;;;18.15;11.82;;;;;;;;;;143727;566;46022;-68
2022/03/10 02:22:27;;;;;;;14.85;11.32;;;;;;;;;;143730;572;45033;-68
2022/03/10 02:24:54;;;;;;;20.73;12.43;;;;;;;;;;143732;569;46012;-69
2022/03/10 02:27:26;;;;;;;17.10;11.35;;;;;;;;;;143730;684;45020;-70
2022/03/10 02:29:58;;;;;;;16.85;11.27;;;;;;;;;;143725;589;46023;-69
2022/03/10 02:32:25;;;;;;;15.35;11.20;;;;;;;;;;143726;739;46018;-68
2022/03/10 02:34:52;;;;;;;22.15;13.38;;;;;;;;;;143732;641;46012;-68
2022/03/10 02:37:20;;;;;;;15.35;11.35;;;;;;;;;;143731;622;45020;-68
2022/03/10 02:39:47;;;;;;;19.83;13.10;;;;;;;;;;143729;573;46012;-68
2022/03/10 02:42:16;;;;;;;20.65;12.52;;;;;;;;;;143730;576;45018;-68
2022/03/10 02:44:49;;;;;;;15.65;11.38;;;;;;;;;;143733;589;45023;-68
2022/03/10 02:47:18;;;;;;;16.10;11.70;;;;;;;;;;143728;648;46018;-69
2022/03/10 02:49:45;;;;;;;16.83;11.63;;;;;;;;;;143727;605;46022;-69
2022/03/10 02:52:12;;;;;;;15.27;10.88;;;;;;;;;;143730;566;46019;-68
2022/03/10 02:54:39;;;;;;;17.27;12.02;;;;;;;;;;143729;610;46039;-68
2022/03/10 02:57:08;;;;;;;17.77;11.73;;;;;;;;;;143729;564;46018;-68
2022/03/10 02:59:35;;;;;;;16.20;11.95;;;;;;;;;;143730;615;46012;-69
2022/03/10 03:02:03;;;;;;;16.35;11.60;;;;;;;;;;143729;584;47012;-68
2022/03/10 03:04:29;;;;;;;19.33;11.93;;;;;;;;;;143734;566;45022;-70
2022/03/10 03:06:56;;;;;;;19.23;12.00;;;;;;;;;;143727;587;46020;-68
2022/03/10 03:09:23;;;;;;;18.83;12.15;;;;;;;;;;143729;631;46012;-68
2022/03/10 03:11:50;;;;;;;17.20;11.38;;;;;;;;;;143729;580;46018;-68
2022/03/10 03:14:18;;;;;;;18.50;12.48;;;;;;;;;;143732;564;46013;-69
2022/03/10 03:16:46;;;;;;;17.30;11.57;;;;;;;;;;143732;571;45021;-68
2022/03/10 03:19:13;;;;;;;14.70;11.35;;;;;;;;;;143730;597;46919;-68
2022/03/10 03:21:40;;;;;;;15.57;12.00;;;;;;;;;;143732;588;45019;-68
2022/03/10 03:24:07;;;;;;;19.77;12.55;;;;;;;;;;143732;598;46023;-68
2022/03/10 03:26:34;;;;;;;16.85;12.50;;;;;;;;;;143727;733;46018;-68
2022/03/10 03:29:01;;;;;;;16.12;11.07;;;;;;;;;;143730;589;46013;-67
2022/03/10 03:31:28;;;;;;;15.27;10.20;;;;;;;;;;143731;581;46019;-67
2022/03/10 03:33:55;;;;;;;16.95;12.43;;;;;;;;;;143734;681;45022;-68
2022/03/10 03:36:23;;;;;;;16.87;10.98;;;;;;;;;;143729;587;46019;-67
2022/03/10 03:38:50;;;;;;;16.20;11.18;;;;;;;;;;143729;597;46022;-68
2022/03/10 03:41:17;;;;;;;18.00;11.73;;;;;;;;;;143729;589;46012;-68
2022/03/10 03:43:44;;;;;;;16.70;11.27;;;;;;;;;;143733;581;46022;-70
2022/03/10 03:46:11;;;;;;;17.02;11.23;;;;;;;;;;143728;582;46019;-68
2022/03/10 03:48:38;;;;;;;18.23;12.40;;;;;;;;;;143728;647;46022;-70
2022/03/10 03:51:06;;;;;;;15.20;11.82;;;;;;;;;;143729;578;46012;-68
2022/03/10 03:53:33;;;;;;;16.90;11.68;;;;;;;;;;143733;577;46023;-68
2022/03/10 03:56:00;;;;;;;20.83;12.37;;;;;;;;;;143728;569;46018;-68
2022/03/10 03:58:27;;;;;;;17.33;12.37;;;;;;;;;;143728;566;46013;-67
2022/03/10 04:00:54;;;;;;;14.63;11.10;;;;;;;;;;143730;594;46012;-69
2022/03/10 04:03:21;;;;;;;15.82;12.32;;;;;;;;;;143733;592;46010;-67
2022/03/10 04:05:48;;;;;;;17.62;12.68;;;;;;;;;;143729;592;46019;-68
2022/03/10 04:08:15;;;;;;;17.40;11.60;;;;;;;;;;143728;614;46022;-70
2022/03/10 04:10:43;;;;;;;16.35;11.10;;;;;;;;;;143729;581;46012;-68
2022/03/10 04:13:10;;;;;;;16.45;11.43;;;;;;;;;;143734;582;45027;-67
2022/03/10 04:15:37;;;;;;;16.02;12.10;;;;;;;;;;143729;580;46019;-67
2022/03/10 04:18:04;;;;;;;18.17;12.05;;;;;;;;;;143728;585;46012;-68
2022/03/10 04:20:31;;;;;;;18.90;11.82;;;;;;;;;;143730;576;46012;-68
2022/03/10 04:22:58;;;;;;;16.25;11.57;;;;;;;;;;143734;598;45028;-67
2022/03/10 04:25:25;;;;;;;17.00;12.48;;;;;;;;;;143729;589;46018;-70
2022/03/10 04:27:53;;;;;;;18.23;11.88;;;;;;;;;;143728;563;46022;-67
2022/03/10 04:30:22;;;;;;;15.70;11.80;;;;;;;;;;143730;591;46012;-69
2022/03/10 04:32:49;;;;;;;17.08;11.35;;;;;;;;;;143733;583;46022;-68
2022/03/10 04:35:18;;;;;;;18.23;12.48;;;;;;;;;;143728;578;46018;-69
2022/03/10 04:37:48;;;;;;;16.77;10.93;;;;;;;;;;143729;694;46013;-69
2022/03/10 04:40:16;;;;;;;15.95;11.00;;;;;;;;;;143731;564;45018;-69
2022/03/10 04:42:43;;;;;;;15.90;11.63;;;;;;;;;;143733;631;46022;-67
2022/03/10 04:45:11;;;;;;;15.93;11.90;;;;;;;;;;143731;622;46018;-69
2022/03/10 04:47:39;;;;;;;18.73;12.70;;;;;;;;;;143728;589;46022;-68
2022/03/10 04:50:07;;;;;;;20.23;13.43;;;;;;;;;;143728;643;46012;-69
2022/03/10 04:52:34;;;;;;;21.08;13.15;;;;;;;;;;143734;584;45023;-67
2022/03/10 04:55:01;;;;;;;19.12;14.20;;;;;;;;;;143729;574;46018;-67
2022/03/10 04:57:28;;;;;;;20.60;14.20;;;;;;;;;;143728;594;46022;-67
2022/03/10 04:59:55;;;;;;;19.58;13.62;;;;;;;;;;143728;565;46012;-67
2022/03/10 05:02:22;;;;;;;21.65;13.93;;;;;;;;;;143732;656;46010;-69
2022/03/10 05:04:49;;;;;;;20.17;14.07;;;;;;;;;;143729;600;46018;-68
2022/03/10 05:07:17;;;;;;;20.40;13.73;;;;;;;;;;143728;575;46022;-68
2022/03/10 05:09:44;;;;;;;28.08;15.07;;;;;;;;;;143731;620;46012;-68
2022/03/10 05:12:11;;;;;;;20.27;14.10;;;;;;;;;;143735;580;46022;-68
2022/03/10 05:14:38;;;;;;;20.88;13.80;;;;;;;;;;143729;571;46019;-68
2022/03/10 05:17:05;;;;;;;22.85;15.13;;;;;;;;;;143727;593;46022;-69
2022/03/10 05:19:32;;;;;;;21.42;15.02;;;;;;;;;;143732;624;45018;-68
2022/03/10 05:21:59;;;;;;;21.55;15.38;;;;;;;;;;143733;577;46023;-69
2022/03/10 05:24:26;;;;;;;18.95;13.43;;;;;;;;;;143729;582;46018;-70
2022/03/10 05:26:53;;;;;;;18.42;13.45;;;;;;;;;;143728;636;46022;-69
2022/03/10 05:29:20;;;;;;;22.50;15.60;;;;;;;;;;143730;570;46012;-69
2022/03/10 05:31:47;;;;;;;19.83;14.60;;;;;;;;;;143733;586;46022;-70
2022/03/10 05:34:15;;;;;;;20.10;12.88;;;;;;;;;;143727;569;46018;-69
2022/03/10 05:36:42;;;;;;;22.55;14.35;;;;;;;;;;143728;575;46023;-69
2022/03/10 05:39:09;;;;;;;18.73;13.10;;;;;;;;;;143730;584;46012;-70
2022/03/10 05:41:35;;;;;;;21.42;13.20;;;;;;;;;;143735;595;45022;-70
2022/03/10 05:44:02;;;;;;;21.12;12.95;;;;;;;;;;143729;595;46019;-68
2022/03/10 05:46:29;;;;;;;18.58;13.45;;;;;;;;;;143729;657;46022;-68
2022/03/10 05:48:56;;;;;;;21.92;15.10;;;;;;;;;;143730;592;46012;-68
2022/03/10 05:51:23;;;;;;;23.38;17.12;;;;;;;;;;143734;564;45023;-68
2022/03/10 05:53:51;;;;;;;20.58;14.98;;;;;;;;;;143729;601;46018;-68
2022/03/10 05:56:18;;;;;;;19.20;14.20;;;;;;;;;;143730;565;46012;-69
2022/03/10 05:58:45;;;;;;;20.23;14.68;;;;;;;;;;143729;633;46012;-68
2022/03/10 06:01:14;;;;;;;20.83;14.55;;;;;;;;;;143732;582;46012;-69
2022/03/10 06:03:41;;;;;;;21.30;15.48;;;;;;;;;;143729;685;46018;-69
2022/03/10 06:06:11;;;;;;;21.42;15.48;;;;;;;;;;143728;580;46023;-69
2022/03/10 06:08:38;;;;;;;24.00;14.77;;;;;;;;;;143729;569;46012;-68
2022/03/10 06:11:05;;;;;;;21.08;15.07;;;;;;;;;;143734;627;45022;-69
2022/03/10 06:13:32;;;;;;;21.35;15.65;;;;;;;;;;143729;619;46019;-69
2022/03/10 06:16:00;;;;;;;26.62;15.63;;;;;;;;;;143729;565;46022;-67
2022/03/10 06:18:27;;;;;;;20.58;14.48;;;;;;;;;;143730;598;45911;-68
2022/03/10 06:20:54;;;;;;;19.10;13.30;;;;;;;;;;143731;734;46022;-69
2022/03/10 06:23:22;;;;;;;21.25;15.25;;;;;;;;;;143726;569;46021;-69
2022/03/10 06:25:49;;;;;;;20.62;14.18;;;;;;;;;;143730;736;46012;-67
2022/03/10 06:28:16;;;;;;;20.17;14.60;;;;;;;;;;143727;602;46016;-68
2022/03/10 06:30:43;;;;;;;21.50;14.45;;;;;;;;;;143734;576;45023;-68
2022/03/10 06:33:10;;;;;;;18.52;13.00;;;;;;;;;;143729;604;46018;-68
2022/03/10 06:35:37;;;;;;;21.73;15.45;;;;;;;;;;143728;589;46023;-69
2022/03/10 06:38:05;;;;;;;16.52;12.63;;;;;;;;;;143731;582;45018;-68
2022/03/10 06:40:32;;;;;;;21.67;13.38;;;;;;;;;;143732;616;46022;-67
2022/03/10 06:43:00;;;;;;;18.70;14.27;;;;;;;;;;143729;570;46019;-66
2022/03/10 06:45:26;;;;;;;18.37;12.50;;;;;;;;;;143729;585;46012;-68
2022/03/10 06:47:53;;;;;;;15.85;10.60;;;;;;;;;;143729;597;46012;-67
2022/03/10 06:50:20;;;;;;;19.50;12.10;;;;;;;;;;143732;567;46011;-67
2022/03/10 06:52:47;;;;;;;34.97;22.02;;;;;;;;;;143727;589;46018;-67
2022/03/10 06:55:14;;;;;;;23.33;16.75;;;;;;;;;;143729;594;46012;-70
2022/03/10 06:57:41;;;;;;;17.80;13.02;;;;;;;;;;143731;640;45033;-68
2022/03/10 07:00:09;;;;;;;18.10;13.25;;;;;;;;;;143732;630;46010;-67
2022/03/10 07:02:36;;;;;;;32.40;19.27;;;;;;;;;;143731;667;46018;-67
2022/03/10 07:05:04;;;;;;;39.38;21.00;;;;;;;;;;143726;730;46023;-67
2022/03/10 07:07:31;;;;;;;25.15;15.55;;;;;;;;;;143730;580;46012;-68
2022/03/10 07:09:58;;;;;;;31.23;18.67;;;;;;;;;;143734;578;45022;-68
2022/03/10 07:12:27;;;;;;;23.80;15.88;;;;;;;;;;143730;569;46019;-67
2022/03/10 07:14:54;;;;;;;23.85;15.07;;;;;;;;;;143729;564;46012;-67
2022/03/10 07:17:21;;;;;;;22.85;14.93;;;;;;;;;;143731;600;45018;-67
2022/03/10 07:19:48;;;;;;;18.85;12.25;;;;;;;;;;143732;609;46010;-68
2022/03/10 07:22:19;;;;;;;21.33;13.55;;;;;;;;;;143729;577;46019;-71
2022/03/10 07:24:46;;;;;;;20.50;12.70;;;;;;;;;;143727;647;46022;-70
2022/03/10 07:27:13;;;;;;;19.55;13.38;;;;;;;;;;143727;614;46013;-74
2022/03/10 07:29:41;;;;;;;23.77;12.82;;;;;;;;;;143731;575;46012;-71
2022/03/10 07:32:20;;;;;;;16.77;12.20;;;;;;;;;;143728;582;46018;-72
2022/03/10 07:34:49;;;;;;;19.67;13.73;;;;;;;;;;143726;603;46013;-73
2022/03/10 07:37:16;;;;;;;20.27;13.32;;;;;;;;;;143728;713;46018;-68
2022/03/10 07:39:43;;;;;;;22.05;13.93;;;;;;;;;;143732;606;45022;-68
2022/03/10 07:42:10;;;;;;;25.00;14.02;;;;;;;;;;143727;630;46019;-70
2022/03/10 07:44:37;;;;;;;26.10;16.37;;;;;;;;;;143724;636;46030;-68
2022/03/10 07:47:05;;;;;;;17.60;11.60;;;;;;;;;;143728;634;46012;-68
2022/03/10 07:49:32;;;;;;;19.33;12.75;;;;;;;;;;143732;585;45023;-68
2022/03/10 07:52:00;;;;;;;20.58;14.27;;;;;;;;;;143727;585;46019;-67
2022/03/10 07:54:28;;;;;;;24.08;16.23;;;;;;;;;;143723;604;46022;-68
2022/03/10 07:56:55;;;;;;;23.62;16.25;;;;;;;;;;143726;594;46013;-67
2022/03/10 07:59:23;;;;;;;21.08;14.65;;;;;;;;;;143732;578;45023;-67
2022/03/10 08:01:50;;;;;;;20.58;13.75;;;;;;;;;;143726;613;47018;-68
2022/03/10 08:04:17;;;;;;;17.35;12.13;;;;;;;;;;143725;570;46039;-69
2022/03/10 08:06:44;;;;;;;19.08;12.95;;;;;;;;;;143729;618;45027;-67
2022/03/10 08:09:12;;;;;;;18.50;13.10;;;;;;;;;;143731;578;46020;-67
2022/03/10 08:11:39;;;;;;;19.50;13.65;;;;;;;;;;143727;616;46021;-68
2022/03/10 08:14:07;;;;;;;19.70;14.55;;;;;;;;;;143726;615;46020;-66
2022/03/10 08:16:34;;;;;;;20.02;13.80;;;;;;;;;;143727;612;46012;-67
2022/03/10 08:19:01;;;;;;;19.67;13.73;;;;;;;;;;143730;588;46020;-68
2022/03/10 08:21:28;;;;;;;19.37;14.00;;;;;;;;;;143726;592;47020;-68
2022/03/10 08:23:55;;;;;;;18.95;13.60;;;;;;;;;;143727;613;46020;-69
2022/03/10 08:26:22;;;;;;;19.15;14.23;;;;;;;;;;143730;575;45020;-68
2022/03/10 08:28:52;;;;;;;15.02;10.40;;;;;;;;;;143734;662;45021;-69
2022/03/10 08:31:21;;;;;;;14.40;11.20;;;;;;;;;;143727;613;46022;-68
2022/03/10 08:33:47;;;;;;;14.65;10.98;;;;;;;;;;143727;628;46012;-67
2022/03/10 08:36:14;;;;;;;15.25;10.88;;;;;;;;;;143729;567;46012;-68
2022/03/10 08:38:42;;;;;;;15.55;11.25;;;;;;;;;;143732;625;45020;-68
2022/03/10 08:41:10;;;;;;;18.02;12.52;;;;;;;;;;143726;569;47020;-68
2022/03/10 08:43:37;;;;;;;17.83;11.65;;;;;;;;;;143726;638;46020;-68
2022/03/10 08:46:05;;;;;;;25.12;16.50;;;;;;;;;;143727;575;46012;-69
2022/03/10 08:48:34;;;;;;;30.65;20.73;;;;;;;;;;143729;603;46011;-67
2022/03/10 08:51:04;;;;;;;70.43;37.83;;;;;;;;;;143726;615;46021;-69
2022/03/10 08:53:31;;;;;;;25.15;16.73;;;;;;;;;;143726;579;46020;-70
2022/03/10 08:56:12;;;;;;;21.20;13.93;;;;;;;;;;143726;614;46013;-71
2022/03/10 08:58:45;;;;;;;22.35;13.75;;;;;;;;;;143731;592;46020;-70
2022/03/10 09:01:17;;;;;;;16.30;11.18;;;;;;;;;;143729;573;46020;-69
2022/03/10 09:03:55;;;;;;;15.27;10.23;;;;;;;;;;143729;665;45918;-70
2022/03/10 09:06:30;;;;;;;15.88;9.75;;;;;;;;;;143730;612;45021;-69
2022/03/10 09:09:07;;;;;;;13.90;10.10;;;;;;;;;;143729;595;46020;-70
2022/03/10 09:11:43;;;;;;;17.30;10.47;;;;;;;;;;143728;614;46021;-70
2022/03/10 09:14:13;;;;;;;16.35;9.85;;;;;;;;;;143729;594;45918;-69
2022/03/10 09:16:41;;;;;;;13.90;9.68;;;;;;;;;;143729;674;46020;-69
2022/03/10 09:19:14;;;;;;;15.20;10.60;;;;;;;;;;143731;615;46020;-68
2022/03/10 09:21:44;;;;;;;13.38;8.98;;;;;;;;;;143728;578;46021;-70
2022/03/10 09:24:16;;;;;;;16.37;9.90;;;;;;;;;;143729;613;45918;-68
2022/03/10 09:26:50;;;;;;;15.60;8.95;;;;;;;;;;143731;569;45021;-71
2022/03/10 09:29:29;;;;;;;14.23;9.15;;;;;;;;;;143733;615;45021;-68
2022/03/10 09:32:07;;;;;;;15.90;10.57;;;;;;;;;;143729;573;46022;-68
2022/03/10 09:34:42;;;;;;;14.80;9.82;;;;;;;;;;143729;620;46917;-68
2022/03/10 09:37:16;;;;;;;13.57;9.20;;;;;;;;;;143729;566;45020;-69
2022/03/10 09:39:43;;;;;;;16.42;9.85;;;;;;;;;;143732;669;45020;-68
2022/03/10 09:42:11;;;;;;;13.23;10.38;;;;;;;;;;143727;636;46022;-68
2022/03/10 09:44:42;;;;;;;14.30;9.27;;;;;;;;;;143726;587;46020;-67
2022/03/10 09:47:10;;;;;;;10.32;7.87;;;;;;;;;;143729;631;45020;-70
2022/03/10 09:49:37;;;;;;;13.13;8.10;;;;;;;;;;143731;585;46011;-69
2022/03/10 09:52:04;;;;;;;12.60;9.63;;;;;;;;;;143725;660;46023;-70
2022/03/10 09:54:31;;;;;;;11.82;9.10;;;;;;;;;;143726;580;46020;-68
2022/03/10 09:56:59;;;;;;;11.52;8.48;;;;;;;;;;143728;617;46013;-68
2022/03/10 09:59:30;;;;;;;13.57;8.77;;;;;;;;;;143731;572;46010;-67
2022/03/10 10:01:57;;;;;;;12.88;9.30;;;;;;;;;;143727;601;46020;-69
2022/03/10 10:04:24;;;;;;;12.37;9.13;;;;;;;;;;143726;588;46021;-69
2022/03/10 10:07:10;;;;;;;17.33;11.88;;;;;;;;;;143727;654;46012;-67
2022/03/10 10:09:53;;;;;;;13.70;9.38;;;;;;;;;;143729;569;47012;-69
2022/03/10 10:12:23;;;;;;;18.58;11.85;;;;;;;;;;143726;622;46022;-69
2022/03/10 10:14:51;;;;;;;19.12;10.27;;;;;;;;;;143726;649;46020;-70
2022/03/10 10:17:30;;;;;;;14.95;9.40;;;;;;;;;;143726;571;46020;-67
2022/03/10 10:19:59;;;;;;;14.32;8.85;;;;;;;;;;143727;572;47014;-70
2022/03/10 10:22:29;;;;;;;13.48;10.05;;;;;;;;;;143728;569;47022;-69
2022/03/10 10:24:59;;;;;;;11.63;8.75;;;;;;;;;;143726;598;46020;-69
2022/03/10 10:27:28;;;;;;;10.27;7.57;;;;;;;;;;143729;583;46012;-68
2022/03/10 10:29:57;;;;;;;10.48;7.78;;;;;;;;;;143731;576;46010;-68
2022/03/10 10:32:34;;;;;;;12.80;8.85;;;;;;;;;;143727;576;46020;-68
2022/03/10 10:35:09;;;;;;;13.15;7.55;;;;;;;;;;143724;628;46021;-67
2022/03/10 10:37:37;;;;;;;;;;;;;;;;;;143732;982;46012;-67
2022/03/10 10:40:05;;;;;;;11.57;7.80;;;;;;;;;;143743;618;45028;-67
2022/03/10 10:42:34;;;;;;;12.43;8.30;;;;;;;;;;143727;572;46022;-69
2022/03/10 10:45:24;;;;;;;12.85;7.85;;;;;;;;;;143726;612;46020;-67
2022/03/10 10:48:08;;;;;;;13.60;8.75;;;;;;;;;;143728;599;46013;-69
2022/03/10 10:50:38;;;;;;;11.25;8.43;;;;;;;;;;143731;617;46021;-68
2022/03/10 10:53:06;;;;;;;13.38;8.95;;;;;;;;;;143727;628;46022;-68
2022/03/10 10:55:36;;;;;;;19.02;11.10;;;;;;;;;;143726;610;46021;-67
2022/03/10 10:58:16;;;;;;;18.12;10.05;;;;;;;;;;143728;614;46012;-68
2022/03/10 11:00:46;;;;;;;12.00;7.53;;;;;;;;;;143731;593;46012;-67
2022/03/10 11:03:26;;;;;;;16.08;9.45;;;;;;;;;;143726;607;46022;-66
2022/03/10 11:05:55;;;;;;;12.32;8.13;;;;;;;;;;143727;644;46012;-67
2022/03/10 11:08:23;;;;;;;11.25;8.25;;;;;;;;;;143730;587;45020;-68
2022/03/10 11:10:51;;;;;;;11.23;8.55;;;;;;;;;;143729;591;46013;-67
2022/03/10 11:13:19;;;;;;;17.90;10.02;;;;;;;;;;143724;657;47020;-68
2022/03/10 11:15:47;;;;;;;13.13;9.30;;;;;;;;;;143726;571;46020;-69
2022/03/10 11:18:14;;;;;;;12.90;8.52;;;;;;;;;;143730;585;45021;-68
2022/03/10 11:20:45;;;;;;;12.05;8.32;;;;;;;;;;143732;603;45032;-68
2022/03/10 11:23:35;;;;;;;16.52;8.07;;;;;;;;;;143726;608;46022;-68
2022/03/10 11:26:20;;;;;;;12.52;8.23;;;;;;;;;;143724;680;46021;-68
2022/03/10 11:28:50;;;;;;;14.73;7.85;;;;;;;;;;143728;647;46014;-67
2022/03/10 11:31:18;;;;;;;11.05;7.55;;;;;;;;;;143729;565;46020;-67
2022/03/10 11:33:45;;;;;;;9.98;7.55;;;;;;;;;;143726;580;46022;-69
2022/03/10 11:36:30;;;;;;;18.35;9.20;;;;;;;;;;143724;621;46020;-68
2022/03/10 11:39:08;;;;;;;10.30;7.30;;;;;;;;;;143729;593;45034;-68
2022/03/10 11:41:50;;;;;;;11.23;7.15;;;;;;;;;;143731;587;46012;-67
2022/03/10 11:44:21;;;;;;;11.02;7.32;;;;;;;;;;143725;574;47020;-68
2022/03/10 11:46:53;;;;;;;11.38;7.15;;;;;;;;;;143727;622;46023;-68
2022/03/10 11:49:20;;;;;;;10.45;6.82;;;;;;;;;;143727;569;46012;-68
2022/03/10 11:51:53;;;;;;;11.32;6.40;;;;;;;;;;143730;605;46020;-68
2022/03/10 11:54:30;;;;;;;8.95;6.40;;;;;;;;;;143727;567;46020;-68
2022/03/10 11:57:05;;;;;;;13.05;7.28;;;;;;;;;;143727;678;46013;-68
2022/03/10 11:59:50;;;;;;;14.00;7.32;;;;;;;;;;143728;569;46012;-67
2022/03/10 12:02:43;;;;;;;11.65;7.20;;;;;;;;;;143732;615;45020;-67
2022/03/10 12:05:13;;;;;;;14.70;7.45;;;;;;;;;;143727;571;46021;-67
2022/03/10 12:07:44;;;;;;;10.18;7.00;;;;;;;;;;143720;610;47034;-67
2022/03/10 12:10:14;;;;;;;10.27;7.72;;;;;;;;;;143726;585;46021;-67
2022/03/10 12:12:43;;;;;;;12.45;7.03;;;;;;;;;;143730;607;46010;-68
2022/03/10 12:15:44;;;;;;;28.83;16.08;;;;;;;;;;143725;565;47020;-69
2022/03/10 12:18:51;;;;;;;10.07;7.78;;;;;;;;;;143727;610;46013;-69
2022/03/10 12:21:21;;;;;;;;;;;;;;;;;;143730;976;46012;-69
2022/03/10 12:24:04;;;;;;;10.75;7.37;;;;;;;;;;143739;576;46012;-67
2022/03/10 12:26:37;;;;;;;10.35;7.15;;;;;;;;;;143727;580;46021;-68
2022/03/10 12:29:05;;;;;;;10.02;6.78;;;;;;;;;;143726;603;46020;-67
2022/03/10 12:31:35;;;;;;;14.30;8.57;;;;;;;;;;143729;615;45020;-69
2022/03/10 12:34:12;;;;;;;10.65;6.40;;;;;;;;;;143731;589;46021;-70
2022/03/10 12:36:51;;;;;;;9.55;6.70;;;;;;;;;;143727;575;46022;-68
2022/03/10 12:39:20;;;;;;;9.55;6.28;;;;;;;;;;143726;584;46021;-70
2022/03/10 12:41:51;;;;;;;9.73;6.32;;;;;;;;;;143727;652;46021;-70
2022/03/10 12:44:21;;;;;;;8.50;6.47;;;;;;;;;;143731;594;46012;-68
2022/03/10 12:46:49;;;;;;;12.43;6.85;;;;;;;;;;143726;652;46022;-70
2022/03/10 12:49:36;;;;;;;9.35;6.72;;;;;;;;;;143726;571;46020;-68
2022/03/10 12:52:14;;;;;;;8.45;6.12;;;;;;;;;;143729;616;46012;-68
2022/03/10 12:54:42;;;;;;;13.20;9.07;;;;;;;;;;143730;617;46013;-68
2022/03/10 12:57:10;;;;;;;10.02;6.47;;;;;;;;;;143727;567;46021;-67
2022/03/10 12:59:40;;;;;;;10.88;5.95;;;;;;;;;;143727;634;46012;-68
2022/03/10 13:02:16;;;;;;;9.70;5.72;;;;;;;;;;143729;645;45021;-68
2022/03/10 13:04:48;;;;;;;;;;;;;;;;;;143736;980;46012;-68
2022/03/10 13:07:15;;;;;;;10.48;6.12;;;;;;;;;;143739;595;46020;-70
2022/03/10 13:09:50;;;;;;;17.58;11.48;;;;;;;;;;143727;571;46013;-70
2022/03/10 13:12:40;;;;;;;26.83;13.93;;;;;;;;;;143726;612;46012;-70
2022/03/10 13:15:19;;;;;;;9.88;6.30;;;;;;;;;;143731;678;46012;-68
2022/03/10 13:17:47;;;;;;;11.27;7.57;;;;;;;;;;143726;585;46029;-68
2022/03/10 13:20:22;;;;;;;9.15;6.43;;;;;;;;;;143727;577;46012;-69
2022/03/10 13:23:10;;;;;;;10.48;6.62;;;;;;;;;;143728;576;46020;-69
2022/03/10 13:25:39;;;;;;;8.88;5.93;;;;;;;;;;143732;604;45021;-69
2022/03/10 13:28:08;;;;;;;14.30;6.95;;;;;;;;;;143727;606;46022;-69
2022/03/10 13:30:36;;;;;;;9.43;6.85;;;;;;;;;;143728;582;46012;-69
2022/03/10 13:33:11;;;;;;;12.52;6.95;;;;;;;;;;143726;576;46021;-70
2022/03/10 13:35:44;;;;;;;11.73;8.40;;;;;;;;;;143728;598;46020;-69
2022/03/10 13:38:23;;;;;;;11.93;6.75;;;;;;;;;;143729;572;46022;-69
2022/03/10 13:40:51;;;;;;;8.90;6.60;;;;;;;;;;143725;675;46021;-70
2022/03/10 13:43:26;;;;;;;11.35;7.50;;;;;;;;;;143727;587;46012;-68
2022/03/10 13:45:53;;;;;;;9.20;7.10;;;;;;;;;;143730;612;46020;-69
2022/03/10 13:48:25;;;;;;;9.23;6.78;;;;;;;;;;143726;601;46023;-68
2022/03/10 13:50:53;;;;;;;8.73;6.62;;;;;;;;;;143726;606;46020;-70
2022/03/10 13:53:27;;;;;;;11.70;7.40;;;;;;;;;;143730;582;46020;-70
2022/03/10 13:55:59;;;;;;;9.25;6.15;;;;;;;;;;143732;601;46033;-69
2022/03/10 13:58:27;;;;;;;9.13;6.15;;;;;;;;;;143729;596;46020;-69
2022/03/10 14:01:07;;;;;;;9.25;6.20;;;;;;;;;;143726;594;46020;-68
2022/03/10 14:03:39;;;;;;;8.13;6.15;;;;;;;;;;143729;632;46021;-66
2022/03/10 14:06:07;;;;;;;9.95;5.85;;;;;;;;;;143733;579;45020;-69
2022/03/10 14:08:47;;;;;;;10.55;6.30;;;;;;;;;;143730;597;46022;-69
2022/03/10 14:11:17;;;;;;;8.32;6.72;;;;;;;;;;143728;569;46921;-69
2022/03/10 14:13:47;;;;;;;9.90;6.95;;;;;;;;;;143729;589;46914;-68
2022/03/10 14:16:17;;;;;;;9.63;6.47;;;;;;;;;;143732;649;45020;-68
2022/03/10 14:18:49;;;;;;;8.82;6.30;;;;;;;;;;143727;599;46023;-68
2022/03/10 14:21:20;;;;;;;9.05;6.50;;;;;;;;;;143729;617;45920;-69
2022/03/10 14:24:05;;;;;;;11.63;7.20;;;;;;;;;;143727;577;46021;-69
2022/03/10 14:26:38;;;;;;;9.20;6.65;;;;;;;;;;143733;572;45021;-68
2022/03/10 14:29:13;;;;;;;10.55;6.43;;;;;;;;;;143730;587;46020;-67
2022/03/10 14:31:45;;;;;;;9.57;6.72;;;;;;;;;;143730;665;45920;-68
2022/03/10 14:34:16;;;;;;;11.73;6.95;;;;;;;;;;143731;578;45023;-68
2022/03/10 14:36:46;;;;;;;8.93;6.53;;;;;;;;;;143731;607;46020;-69
2022/03/10 14:39:13;;;;;;;10.73;6.87;;;;;;;;;;143730;632;46022;-69
2022/03/10 14:41:48;;;;;;;10.50;7.00;;;;;;;;;;143730;580;45921;-68
2022/03/10 14:44:17;;;;;;;8.82;5.93;;;;;;;;;;143730;587;45020;-68